Time;durP1;ratioP1;P1;durP2;ratioP2;P2;SDS_P1;SDS_P2;PMS_P1;PMS_P2;Temp;Humidity;BMP_temperature;BMP_pressure;BME280_temperature;BME280_humidity;BME280_pressure;Samples;Min_cycle;Max_cycle;Signal;HPM_P1;HPM_P2
2023/11/01 00:02:25;;;;;;;3.70;1.25;;;12.10;99.90;;;;;;6136621;23;20025;-86
2023/11/01 00:04:52;;;;;;;2.60;1.25;;;12.10;99.90;;;;;;6160534;23;20056;-86
2023/11/01 00:07:20;;;;;;;2.55;1.08;;;12.10;99.90;;;;;;6159880;23;20021;-86
2023/11/01 00:09:47;;;;;;;3.03;0.90;;;12.00;99.90;;;;;;6135992;23;20085;-86
2023/11/01 00:12:16;;;;;;;3.58;0.75;;;12.00;99.90;;;;;;6159745;23;20024;-86
2023/11/01 00:14:43;;;;;;;1.48;0.75;;;12.00;99.90;;;;;;6135673;23;20515;-86
2023/11/01 00:17:11;;;;;;;2.45;0.77;;;12.00;99.90;;;;;;6135426;23;20025;-85
2023/11/01 00:19:39;;;;;;;3.47;0.85;;;12.00;99.90;;;;;;6135999;23;20025;-85
2023/11/01 00:22:09;;;;;;;3.33;0.85;;;12.00;99.90;;;;;;6159701;23;20088;-85
2023/11/01 00:24:39;;;;;;;1.95;0.80;;;12.00;99.90;;;;;;6135523;23;20414;-86
2023/11/01 00:27:10;;;;;;;2.00;0.63;;;12.00;99.90;;;;;;6136662;23;20343;-86
2023/11/01 00:29:38;;;;;;;1.52;0.70;;;12.00;99.90;;;;;;6135717;23;20021;-85
2023/11/01 00:32:05;;;;;;;2.97;0.52;;;12.00;99.90;;;;;;6135617;23;20051;-85
2023/11/01 00:34:36;;;;;;;1.73;1.00;;;12.00;99.90;;;;;;6135917;23;20355;-86
2023/11/01 00:37:04;;;;;;;2.50;0.70;;;12.00;99.90;;;;;;6112036;23;20024;-86
2023/11/01 00:39:34;;;;;;;3.08;0.55;;;12.00;99.90;;;;;;6111513;23;20017;-86
2023/11/01 00:42:01;;;;;;;2.42;0.68;;;12.00;99.90;;;;;;6135584;23;20081;-86
2023/11/01 00:44:28;;;;;;;2.42;0.70;;;12.00;99.90;;;;;;6135643;23;20027;-85
2023/11/01 00:46:55;;;;;;;2.75;0.60;;;12.00;99.90;;;;;;6160327;23;20112;-85
2023/11/01 00:49:22;;;;;;;4.45;0.75;;;12.00;99.90;;;;;;6135859;23;20017;-86
2023/11/01 00:51:50;;;;;;;1.13;0.60;;;12.00;99.90;;;;;;6159676;23;20049;-85
2023/11/01 00:54:17;;;;;;;1.73;0.60;;;12.10;99.90;;;;;;6135777;23;20023;-86
2023/11/01 00:56:46;;;;;;;1.35;0.60;;;12.10;99.90;;;;;;6135790;23;20076;-86
2023/11/01 00:59:14;;;;;;;2.88;0.50;;;12.10;99.90;;;;;;6135331;23;20032;-86
2023/11/01 01:01:41;;;;;;;1.20;0.50;;;12.10;99.90;;;;;;6135239;23;20024;-86
2023/11/01 01:04:08;;;;;;;1.35;0.50;;;12.10;99.90;;;;;;6159725;23;20037;-86
2023/11/01 01:06:35;;;;;;;1.50;0.60;;;12.10;99.90;;;;;;6135267;23;20017;-86
2023/11/01 01:09:02;;;;;;;2.85;0.65;;;12.10;99.90;;;;;;6159457;23;20040;-85
2023/11/01 01:11:30;;;;;;;2.08;0.70;;;12.10;99.90;;;;;;6161650;23;20064;-86
2023/11/01 01:13:57;;;;;;;2.53;1.27;;;12.20;99.90;;;;;;6161462;23;20028;-86
2023/11/01 01:16:24;;;;;;;3.40;0.80;;;12.10;99.90;;;;;;6136769;23;20021;-86
2023/11/01 01:18:51;;;;;;;1.23;0.60;;;12.10;99.90;;;;;;6112792;23;20037;-86
2023/11/01 01:21:19;;;;;;;4.75;0.60;;;12.20;99.90;;;;;;6161021;23;20021;-86
2023/11/01 01:23:46;;;;;;;4.03;0.88;;;12.20;99.90;;;;;;6136821;23;20048;-85
2023/11/01 01:26:13;;;;;;;2.33;0.60;;;12.20;99.90;;;;;;6136923;23;20455;-86
2023/11/01 01:28:41;;;;;;;3.15;0.85;;;12.20;99.90;;;;;;6112637;23;20037;-85
2023/11/01 01:31:08;;;;;;;1.80;0.80;;;12.20;99.90;;;;;;6136905;23;20025;-85
2023/11/01 01:33:35;;;;;;;1.70;0.93;;;12.20;99.90;;;;;;6161421;23;20107;-85
2023/11/01 01:36:05;;;;;;;1.85;0.70;;;12.20;99.90;;;;;;6161528;23;20035;-86
2023/11/01 01:38:32;;;;;;;2.25;0.57;;;12.20;99.90;;;;;;6161203;23;20032;-86
2023/11/01 01:40:59;;;;;;;3.03;0.70;;;12.20;99.90;;;;;;6136724;23;20040;-86
2023/11/01 01:43:26;;;;;;;2.00;0.98;;;12.20;99.90;;;;;;6136477;23;20451;-85
2023/11/01 01:46:04;;;;;;;3.70;0.60;;;12.20;99.90;;;;;;6160829;23;20017;-85
2023/11/01 01:48:32;;;;;;;3.08;1.13;;;12.20;99.90;;;;;;6136762;23;20017;-85
2023/11/01 01:51:00;;;;;;;4.05;0.98;;;12.10;99.90;;;;;;6161005;23;20025;-85
2023/11/01 01:53:28;;;;;;;2.58;0.82;;;12.10;99.90;;;;;;6161344;23;20115;-86
2023/11/01 01:55:57;;;;;;;3.90;0.75;;;12.10;99.90;;;;;;6160830;23;20025;-85
2023/11/01 01:58:29;;;;;;;5.57;0.63;;;12.10;99.90;;;;;;6161099;23;20021;-86
2023/11/01 02:00:59;;;;;;;3.80;0.70;;;12.10;99.90;;;;;;6160879;23;20347;-86
2023/11/01 02:03:26;;;;;;;1.73;0.60;;;12.10;99.90;;;;;;6161196;23;20235;-85
2023/11/01 02:05:55;;;;;;;2.72;0.57;;;12.00;99.90;;;;;;6161013;23;20020;-85
2023/11/01 02:08:24;;;;;;;1.98;0.90;;;12.00;99.90;;;;;;6161131;23;20017;-85
2023/11/01 02:10:53;;;;;;;1.48;0.50;;;12.00;99.90;;;;;;6161240;23;20053;-85
2023/11/01 02:13:22;;;;;;;2.28;0.65;;;12.00;99.90;;;;;;6160910;23;20087;-85
2023/11/01 02:15:51;;;;;;;2.38;0.85;;;12.00;99.90;;;;;;6162472;23;20025;-85
2023/11/01 02:18:18;;;;;;;2.03;0.98;;;11.90;99.90;;;;;;6144554;23;20025;-85
2023/11/01 02:20:47;;;;;;;1.80;0.55;;;11.90;99.90;;;;;;6123446;23;20091;-85
2023/11/01 02:23:17;;;;;;;1.65;0.70;;;12.00;99.90;;;;;;6170860;23;20028;-86
2023/11/01 02:25:44;;;;;;;1.30;0.60;;;12.00;99.90;;;;;;6152792;23;20111;-85
2023/11/01 02:28:12;;;;;;;2.92;0.80;;;11.90;99.90;;;;;;6137559;23;20021;-85
2023/11/01 02:30:42;;;;;;;2.63;0.70;;;11.90;99.90;;;;;;6136938;23;20036;-85
2023/11/01 02:33:09;;;;;;;1.40;0.43;;;11.90;99.90;;;;;;6136488;23;20031;-85
2023/11/01 02:35:37;;;;;;;1.98;0.60;;;11.90;99.90;;;;;;6136295;23;20354;-85
2023/11/01 02:38:04;;;;;;;3.08;0.50;;;11.90;99.90;;;;;;6160897;23;20047;-85
2023/11/01 02:40:33;;;;;;;4.03;0.52;;;11.90;99.90;;;;;;6136655;23;20021;-85
2023/11/01 02:43:02;;;;;;;1.80;0.30;;;11.90;99.90;;;;;;6160868;23;20417;-85
2023/11/01 02:45:29;;;;;;;3.33;0.90;;;11.90;99.90;;;;;;6136156;23;20443;-85
2023/11/01 02:47:56;;;;;;;2.20;0.40;;;11.90;99.90;;;;;;6160650;23;20021;-85
2023/11/01 02:50:23;;;;;;;2.78;0.50;;;11.90;99.90;;;;;;6136306;23;20517;-85
2023/11/01 02:52:54;;;;;;;3.80;0.60;;;11.90;99.90;;;;;;6160447;23;20107;-85
2023/11/01 02:55:21;;;;;;;2.42;0.60;;;11.90;99.90;;;;;;6135886;23;20087;-85
2023/11/01 02:57:51;;;;;;;2.20;0.50;;;11.90;99.90;;;;;;6136255;23;20029;-85
2023/11/01 03:00:19;;;;;;;1.60;0.40;;;11.90;99.90;;;;;;6136109;23;20027;-86
2023/11/01 03:02:48;;;;;;;2.92;0.75;;;11.90;99.90;;;;;;6160877;23;20024;-85
2023/11/01 03:05:16;;;;;;;1.92;0.80;;;11.80;99.90;;;;;;6160339;23;20021;-86
2023/11/01 03:07:44;;;;;;;1.63;0.50;;;11.80;99.90;;;;;;6160215;23;20021;-85
2023/11/01 03:10:12;;;;;;;3.78;0.70;;;11.80;99.90;;;;;;6160604;23;20076;-85
2023/11/01 03:12:39;;;;;;;2.75;0.82;;;11.80;99.90;;;;;;6135985;23;20486;-85
2023/11/01 03:15:07;;;;;;;1.40;0.30;;;11.80;99.90;;;;;;6160220;23;20021;-85
2023/11/01 03:17:38;;;;;;;1.85;0.50;;;11.80;99.90;;;;;;6160302;23;20328;-85
2023/11/01 03:20:10;;;;;;;3.20;0.40;;;11.80;99.90;;;;;;6136089;23;20021;-85
2023/11/01 03:22:39;;;;;;;3.78;0.40;;;11.80;99.90;;;;;;6136345;23;20427;-84
2023/11/01 03:25:08;;;;;;;2.63;0.47;;;11.80;99.90;;;;;;6135858;23;20025;-84
2023/11/01 03:27:35;;;;;;;2.30;0.43;;;11.80;99.90;;;;;;6135890;23;20021;-84
2023/11/01 03:30:02;;;;;;;1.48;0.32;;;11.80;99.90;;;;;;6160671;23;20024;-85
2023/11/01 03:32:31;;;;;;;1.48;0.40;;;11.80;99.90;;;;;;6135770;23;20329;-84
2023/11/01 03:34:58;;;;;;;1.27;0.40;;;11.80;99.90;;;;;;6135604;23;20021;-85
2023/11/01 03:37:25;;;;;;;1.08;0.40;;;11.80;99.90;;;;;;6160442;23;20103;-85
2023/11/01 03:39:59;;;;;;;2.28;0.30;;;11.80;99.90;;;;;;6159937;23;20104;-85
2023/11/01 03:42:26;;;;;;;2.22;0.40;;;11.90;99.90;;;;;;6160583;23;20013;-84
2023/11/01 03:44:55;;;;;;;2.30;0.40;;;11.90;99.90;;;;;;6160038;23;20020;-85
2023/11/01 03:47:22;;;;;;;0.98;0.45;;;11.90;99.90;;;;;;6111653;23;20067;-84
2023/11/01 03:49:54;;;;;;;2.22;0.40;;;11.90;99.90;;;;;;6159859;23;20043;-85
2023/11/01 03:52:23;;;;;;;2.13;0.60;;;11.90;99.90;;;;;;6160314;23;20021;-84
2023/11/01 03:54:50;;;;;;;2.00;0.60;;;11.90;99.90;;;;;;6135742;23;20021;-85
2023/11/01 03:57:17;;;;;;;2.95;0.45;;;11.90;99.90;;;;;;6135802;23;20025;-85
2023/11/01 03:59:47;;;;;;;1.27;0.47;;;11.90;99.90;;;;;;6160254;23;20075;-85
2023/11/01 04:02:14;;;;;;;1.23;0.50;;;11.90;99.90;;;;;;6135398;23;20024;-85
2023/11/01 04:04:46;;;;;;;2.45;0.55;;;11.90;99.90;;;;;;6159830;23;20076;-85
2023/11/01 04:07:13;;;;;;;1.02;0.45;;;11.90;99.90;;;;;;6135449;23;20016;-85
2023/11/01 04:09:41;;;;;;;1.45;0.50;;;11.90;99.90;;;;;;6159883;23;20017;-85
2023/11/01 04:12:08;;;;;;;2.47;0.50;;;11.90;99.90;;;;;;6135892;23;20032;-85
2023/11/01 04:14:35;;;;;;;1.58;0.50;;;11.90;99.90;;;;;;6160391;23;20021;-85
2023/11/01 04:17:03;;;;;;;1.15;0.50;;;11.90;99.90;;;;;;6135427;23;20075;-85
2023/11/01 04:19:31;;;;;;;0.60;0.30;;;11.90;99.90;;;;;;6135742;23;20025;-86
2023/11/01 04:22:01;;;;;;;1.00;0.35;;;11.90;99.90;;;;;;6159871;23;20025;-87
2023/11/01 04:24:28;;;;;;;0.88;0.38;;;11.90;99.90;;;;;;6135371;23;20479;-87
2023/11/01 04:26:55;;;;;;;1.60;0.45;;;11.90;99.90;;;;;;6159897;23;20021;-87
2023/11/01 04:29:25;;;;;;;2.80;0.60;;;11.90;99.90;;;;;;6135366;23;20017;-86
2023/11/01 04:31:52;;;;;;;1.05;0.60;;;11.90;99.90;;;;;;6136879;23;20506;-86
2023/11/01 04:34:29;;;;;;;0.88;0.40;;;11.90;99.90;;;;;;6160280;23;20443;-86
2023/11/01 04:37:12;;;;;;;0.85;0.40;;;11.90;99.90;;;;;;6160167;23;20025;-86
2023/11/01 04:39:44;;;;;;;1.58;0.50;;;11.90;99.90;;;;;;6135142;23;20032;-86
2023/11/01 04:42:16;;;;;;;0.85;0.40;;;11.90;99.90;;;;;;6135947;23;20079;-86
2023/11/01 04:44:46;;;;;;;0.85;0.30;;;11.90;99.90;;;;;;6113393;23;20048;-85
2023/11/01 04:47:13;;;;;;;2.05;0.20;;;11.90;99.90;;;;;;6138155;23;20025;-86
2023/11/01 04:49:41;;;;;;;1.38;0.40;;;11.90;99.90;;;;;;6137826;23;20095;-86
2023/11/01 04:52:11;;;;;;;0.95;0.40;;;11.90;99.90;;;;;;6138005;23;20028;-85
2023/11/01 04:54:42;;;;;;;0.90;0.40;;;11.90;99.90;;;;;;6161870;23;20107;-85
2023/11/01 04:57:28;;;;;;;0.77;0.40;;;11.90;99.90;;;;;;6139270;23;20084;-86
2023/11/01 04:59:55;;;;;;;0.75;0.20;;;11.90;99.90;;;;;;6137526;23;20025;-86
2023/11/01 05:02:26;;;;;;;0.80;0.60;;;11.90;99.90;;;;;;6161999;23;20052;-86
2023/11/01 05:04:59;;;;;;;0.70;0.30;;;11.90;99.90;;;;;;6161620;23;20017;-86
2023/11/01 05:07:26;;;;;;;0.85;0.47;;;11.90;99.90;;;;;;6137435;23;20023;-86
2023/11/01 05:09:53;;;;;;;0.80;0.40;;;11.90;99.90;;;;;;6161966;23;20051;-86
2023/11/01 05:12:31;;;;;;;0.60;0.28;;;11.90;99.90;;;;;;6163166;23;20100;-87
2023/11/01 05:14:58;;;;;;;0.63;0.30;;;11.90;99.90;;;;;;6161729;23;20044;-86
2023/11/01 05:17:27;;;;;;;0.47;0.22;;;11.90;99.90;;;;;;6162122;23;20021;-86
2023/11/01 05:19:55;;;;;;;0.70;0.30;;;12.00;99.90;;;;;;6161497;23;20029;-85
2023/11/01 05:22:31;;;;;;;0.65;0.28;;;12.00;99.90;;;;;;6163055;23;20044;-85
2023/11/01 05:25:13;;;;;;;1.05;0.50;;;12.00;99.90;;;;;;6161854;23;20027;-85
2023/11/01 05:27:41;;;;;;;;;;;12.00;99.90;;;;;;6137645;23;20518;-85
2023/11/01 05:30:14;;;;;;;1.98;0.50;;;12.00;99.90;;;;;;6186127;23;19920;-85
2023/11/01 05:32:45;;;;;;;1.58;0.63;;;12.00;99.90;;;;;;6161459;23;20100;-85
2023/11/01 05:35:14;;;;;;;1.90;0.73;;;12.00;99.90;;;;;;6162248;23;20095;-86
2023/11/01 05:37:43;;;;;;;1.50;0.70;;;12.00;99.90;;;;;;6161928;23;20096;-86
2023/11/01 05:40:16;;;;;;;1.83;0.63;;;12.00;99.90;;;;;;6138511;23;20478;-86
2023/11/01 05:42:50;;;;;;;0.90;0.50;;;12.10;99.90;;;;;;6160974;23;20763;-85
2023/11/01 05:45:17;;;;;;;1.90;0.85;;;12.10;99.90;;;;;;6137213;23;20021;-85
2023/11/01 05:47:49;;;;;;;2.90;1.20;;;12.10;99.90;;;;;;6161924;23;20013;-85
2023/11/01 05:50:23;;;;;;;1.33;0.60;;;12.10;99.90;;;;;;6137964;23;20033;-86
2023/11/01 05:52:52;;;;;;;2.55;0.50;;;12.10;99.90;;;;;;6161574;23;20037;-86
2023/11/01 05:55:20;;;;;;;1.50;0.70;;;12.20;99.90;;;;;;6161102;23;20108;-85
2023/11/01 05:58:00;;;;;;;1.33;0.70;;;12.20;99.90;;;;;;6161468;23;20025;-85
2023/11/01 06:00:27;;;;;;;1.65;0.90;;;12.20;99.90;;;;;;6161309;23;20048;-85
2023/11/01 06:02:54;;;;;;;1.50;0.70;;;12.20;99.90;;;;;;6136636;23;20399;-85
2023/11/01 06:05:33;;;;;;;1.52;0.50;;;12.20;99.90;;;;;;6136425;23;20557;-85
2023/11/01 06:08:04;;;;;;;1.65;0.50;;;12.20;99.90;;;;;;6138815;23;20021;-85
2023/11/01 06:10:33;;;;;;;1.75;0.70;;;12.30;99.90;;;;;;6136798;23;20107;-85
2023/11/01 06:13:03;;;;;;;1.35;0.55;;;12.30;99.90;;;;;;6185706;23;20048;-85
2023/11/01 06:15:30;;;;;;;2.65;0.90;;;12.30;99.90;;;;;;6160757;23;20021;-85
2023/11/01 06:17:57;;;;;;;1.58;0.88;;;12.30;99.90;;;;;;6137032;23;20024;-85
2023/11/01 06:20:25;;;;;;;1.17;0.68;;;12.30;99.90;;;;;;6160905;23;20025;-85
2023/11/01 06:22:52;;;;;;;1.55;0.65;;;12.30;99.90;;;;;;6160748;23;20071;-85
2023/11/01 06:25:20;;;;;;;2.75;0.70;;;12.40;99.90;;;;;;6136311;23;20021;-85
2023/11/01 06:27:50;;;;;;;2.67;0.90;;;12.40;99.90;;;;;;6162452;23;20024;-90
2023/11/01 06:30:17;;;;;;;1.52;0.50;;;12.40;99.90;;;;;;6161572;23;20029;-88
2023/11/01 06:32:44;;;;;;;2.92;0.82;;;12.40;99.90;;;;;;6140670;23;20025;-89
2023/11/01 06:35:16;;;;;;;3.08;1.23;;;12.40;99.90;;;;;;6167198;23;20017;-89
2023/11/01 06:37:43;;;;;;;3.30;0.82;;;12.40;99.90;;;;;;6175933;23;20021;-89
2023/11/01 06:40:11;;;;;;;1.38;0.50;;;12.40;99.90;;;;;;6163464;23;20525;-89
2023/11/01 06:42:38;;;;;;;1.38;0.50;;;12.50;99.90;;;;;;6137608;23;20024;-89
2023/11/01 06:45:06;;;;;;;1.83;0.40;;;12.50;99.90;;;;;;6137685;23;20021;-89
2023/11/01 06:47:33;;;;;;;1.88;0.47;;;12.50;99.90;;;;;;6162266;23;20040;-89
2023/11/01 06:50:00;;;;;;;3.00;0.70;;;12.50;99.90;;;;;;6162009;23;20075;-89
2023/11/01 06:52:27;;;;;;;2.83;0.85;;;12.50;99.90;;;;;;6162157;23;20024;-89
2023/11/01 06:54:55;;;;;;;5.38;0.57;;;12.50;99.90;;;;;;6137048;23;20029;-89
2023/11/01 06:57:22;;;;;;;3.55;0.63;;;12.60;99.90;;;;;;6161284;23;20083;-89
2023/11/01 06:59:49;;;;;;;3.35;1.45;;;12.60;99.90;;;;;;6136069;23;20485;-85
2023/11/01 07:02:16;;;;;;;4.88;1.35;;;12.60;99.90;;;;;;6160399;23;20021;-84
2023/11/01 07:04:47;;;;;;;4.35;0.93;;;12.60;99.90;;;;;;6136621;23;20023;-84
2023/11/01 07:07:17;;;;;;;5.40;0.65;;;12.60;99.90;;;;;;6160683;23;20017;-85
2023/11/01 07:09:46;;;;;;;1.80;0.68;;;12.60;99.90;;;;;;6136431;23;20044;-84
2023/11/01 07:12:14;;;;;;;2.13;0.80;;;12.60;99.90;;;;;;6135705;23;20029;-84
2023/11/01 07:14:41;;;;;;;2.85;0.98;;;12.70;99.90;;;;;;6136080;23;20017;-84
2023/11/01 07:17:11;;;;;;;3.78;1.30;;;12.70;99.90;;;;;;6111504;23;20021;-84
2023/11/01 07:19:38;;;;;;;5.72;1.17;;;12.70;99.90;;;;;;6111413;23;20021;-84
2023/11/01 07:22:05;;;;;;;2.28;0.85;;;12.70;99.90;;;;;;6135387;23;20440;-84
2023/11/01 07:24:32;;;;;;;2.10;1.08;;;12.70;99.90;;;;;;6135523;23;20021;-84
2023/11/01 07:26:59;;;;;;;4.63;1.23;;;12.80;99.90;;;;;;6160192;23;20112;-84
2023/11/01 07:29:26;;;;;;;5.10;1.00;;;12.70;99.90;;;;;;6135884;23;20067;-84
2023/11/01 07:31:54;;;;;;;3.42;0.75;;;12.80;99.90;;;;;;6135344;23;20417;-84
2023/11/01 07:34:21;;;;;;;5.43;1.00;;;12.80;99.90;;;;;;6135223;23;20422;-84
2023/11/01 07:36:48;;;;;;;5.28;1.05;;;12.80;99.90;;;;;;6111637;23;20075;-84
2023/11/01 07:39:15;;;;;;;3.28;0.90;;;12.80;99.90;;;;;;6159515;23;20032;-84
2023/11/01 07:41:42;;;;;;;2.53;0.70;;;12.80;99.90;;;;;;6159822;23;20447;-84
2023/11/01 07:44:09;;;;;;;6.15;1.10;;;12.80;99.90;;;;;;6160009;23;20013;-84
2023/11/01 07:46:36;;;;;;;5.82;1.50;;;12.80;99.90;;;;;;6160169;23;20021;-84
2023/11/01 07:49:04;;;;;;;2.65;0.88;;;12.90;99.90;;;;;;6135469;23;20031;-84
2023/11/01 07:51:31;;;;;;;7.03;1.80;;;12.90;99.90;;;;;;6135352;23;20509;-84
2023/11/01 07:53:58;;;;;;;2.75;0.88;;;12.90;99.90;;;;;;6135607;23;20112;-84
2023/11/01 07:56:25;;;;;;;4.50;1.00;;;12.90;99.90;;;;;;6135116;23;20055;-84
2023/11/01 07:58:54;;;;;;;5.50;1.80;;;13.00;99.90;;;;;;6159594;23;20068;-84
2023/11/01 08:01:21;;;;;;;4.60;1.27;;;12.90;99.90;;;;;;6159606;23;20021;-84
2023/11/01 08:03:49;;;;;;;3.17;1.13;;;13.00;99.90;;;;;;6135507;23;20013;-84
2023/11/01 08:06:17;;;;;;;6.40;1.58;;;13.00;99.90;;;;;;6159428;23;20328;-83
2023/11/01 08:08:44;;;;;;;7.15;1.35;;;13.00;99.90;;;;;;6159734;23;20021;-84
2023/11/01 08:11:11;;;;;;;2.60;1.20;;;13.10;99.90;;;;;;6110869;23;20021;-83
2023/11/01 08:13:38;;;;;;;3.55;0.98;;;13.10;99.90;;;;;;6159325;23;20477;-84
2023/11/01 08:16:06;;;;;;;2.17;0.77;;;13.20;99.90;;;;;;6134900;23;20099;-84
2023/11/01 08:18:33;;;;;;;3.53;0.82;;;13.20;99.90;;;;;;6134829;23;20017;-84
2023/11/01 08:21:00;;;;;;;3.83;1.00;;;13.20;99.90;;;;;;6137015;23;20029;-84
2023/11/01 08:23:27;;;;;;;5.53;1.08;;;13.30;99.90;;;;;;6161288;23;20033;-84
2023/11/01 08:25:54;;;;;;;5.05;0.70;;;13.30;99.90;;;;;;6137549;23;20021;-84
2023/11/01 08:28:22;;;;;;;5.07;1.13;;;13.40;99.90;;;;;;6161629;23;20088;-83
2023/11/01 08:30:49;;;;;;;3.85;1.20;;;13.40;99.90;;;;;;6112657;23;20096;-83
2023/11/01 08:33:16;;;;;;;6.10;1.23;;;13.40;99.90;;;;;;6136704;23;20025;-82
2023/11/01 08:35:44;;;;;;;8.52;1.20;;;13.50;99.90;;;;;;6137158;23;20021;-82
2023/11/01 08:38:11;;;;;;;4.88;1.10;;;13.50;99.90;;;;;;6161351;23;20029;-82
2023/11/01 08:40:38;;;;;;;5.90;0.90;;;13.50;99.90;;;;;;6136609;23;20461;-82
2023/11/01 08:43:05;;;;;;;8.00;1.20;;;13.60;99.90;;;;;;6161138;23;20025;-82
2023/11/01 08:45:33;;;;;;;4.28;1.30;;;13.60;99.90;;;;;;6161578;23;20017;-85
2023/11/01 08:48:00;;;;;;;4.22;0.98;;;13.60;99.90;;;;;;6137456;23;20459;-82
2023/11/01 08:50:27;;;;;;;3.42;0.80;;;13.60;99.90;;;;;;6137139;23;20025;-83
2023/11/01 08:52:55;;;;;;;6.88;0.95;;;13.70;99.90;;;;;;6161939;23;20025;-86
2023/11/01 08:55:22;;;;;;;5.22;1.00;;;13.70;99.90;;;;;;6137423;23;20032;-86
2023/11/01 08:57:49;;;;;;;4.90;1.02;;;13.70;99.90;;;;;;6162064;23;20049;-86
2023/11/01 09:00:16;;;;;;;3.67;0.77;;;13.70;99.90;;;;;;6162062;23;20443;-86
2023/11/01 09:02:44;;;;;;;4.53;0.80;;;13.70;99.90;;;;;;6162228;23;20025;-86
2023/11/01 09:05:12;;;;;;;2.80;0.75;;;13.70;99.90;;;;;;6137398;23;20451;-85
2023/11/01 09:07:40;;;;;;;2.63;0.50;;;13.70;99.90;;;;;;6137183;23;20017;-86
2023/11/01 09:10:10;;;;;;;2.88;0.88;;;13.70;99.90;;;;;;6161330;23;20021;-86
2023/11/01 09:12:37;;;;;;;3.47;0.70;;;13.70;99.90;;;;;;6114223;23;20560;-87
2023/11/01 09:15:05;;;;;;;3.17;0.93;;;13.70;99.90;;;;;;6112836;23;20084;-85
2023/11/01 09:17:34;;;;;;;4.28;0.70;;;13.70;99.90;;;;;;6161388;23;20025;-86
2023/11/01 09:20:01;;;;;;;3.42;0.65;;;13.70;99.90;;;;;;6113251;23;20443;-86
2023/11/01 09:22:30;;;;;;;3.33;0.80;;;13.80;99.90;;;;;;6137614;23;20024;-86
2023/11/01 09:24:57;;;;;;;4.50;0.98;;;13.80;99.90;;;;;;6138345;23;20017;-86
2023/11/01 09:27:24;;;;;;;4.53;0.73;;;13.80;99.90;;;;;;6161904;23;20025;-87
2023/11/01 09:29:52;;;;;;;3.38;0.90;;;13.90;99.90;;;;;;6137381;23;20100;-86
2023/11/01 09:32:19;;;;;;;5.28;0.70;;;13.90;99.90;;;;;;6137035;23;20108;-87
2023/11/01 09:34:46;;;;;;;2.88;0.50;;;14.00;99.90;;;;;;6161891;23;20017;-87
2023/11/01 09:37:15;;;;;;;3.17;0.60;;;14.00;99.90;;;;;;6138051;23;20051;-88
2023/11/01 09:40:00;;;;;;;2.83;0.80;;;14.10;99.90;;;;;;6113157;23;20028;-90
2023/11/01 09:42:44;;;;;;;3.92;0.75;;;14.10;99.80;;;;;;6139174;23;20013;-87
2023/11/01 09:45:25;;;;;;;2.80;0.80;;;14.10;99.90;;;;;;6137762;23;20028;-89
2023/11/01 09:47:53;;;;;;;1.63;0.57;;;14.10;99.80;;;;;;6161314;23;20451;-86
2023/11/01 09:50:20;;;;;;;2.67;0.63;;;14.10;99.90;;;;;;6162014;23;20029;-90
2023/11/01 09:52:49;;;;;;;5.28;0.90;;;14.10;99.80;;;;;;6137288;23;20439;-84
2023/11/01 09:55:17;;;;;;;5.95;1.00;;;14.20;99.70;;;;;;6163769;23;20096;-85
2023/11/01 09:57:47;;;;;;;6.25;0.73;;;14.20;99.50;;;;;;6143837;23;20025;-83
2023/11/01 10:00:16;;;;;;;4.80;0.75;;;14.20;99.70;;;;;;6136930;23;20020;-87
2023/11/01 10:02:43;;;;;;;10.35;0.95;;;14.20;99.60;;;;;;6161371;23;20132;-88
2023/11/01 10:05:14;;;;;;;2.83;0.60;;;14.30;99.40;;;;;;6161551;23;20036;-89
2023/11/01 10:07:44;;;;;;;2.42;0.70;;;14.30;99.30;;;;;;6161086;23;20021;-86
2023/11/01 10:10:16;;;;;;;5.05;0.50;;;14.40;99.30;;;;;;6136744;23;20025;-85
2023/11/01 10:12:45;;;;;;;2.45;0.70;;;14.40;99.30;;;;;;6137517;23;20075;-86
2023/11/01 10:15:22;;;;;;;2.88;0.50;;;14.40;99.30;;;;;;6137309;23;20099;-86
2023/11/01 10:17:54;;;;;;;1.58;0.50;;;14.50;99.20;;;;;;6161370;23;20028;-86
2023/11/01 10:20:27;;;;;;;3.47;0.40;;;14.50;99.30;;;;;;6137443;23;20028;-87
2023/11/01 10:22:56;;;;;;;2.03;0.52;;;14.40;99.20;;;;;;6160988;23;20447;-86
2023/11/01 10:25:24;;;;;;;3.15;0.50;;;14.30;99.20;;;;;;6161245;23;20031;-87
2023/11/01 10:27:55;;;;;;;;;;;14.30;99.30;;;;;;6162238;23;20346;-86
2023/11/01 10:30:25;;;;;;;3.63;0.75;;;14.30;99.40;;;;;;6163639;23;19920;-86
2023/11/01 10:32:59;;;;;;;1.95;0.40;;;14.30;99.30;;;;;;6162803;23;20013;-86
2023/11/01 10:35:43;;;;;;;3.92;0.50;;;14.30;99.20;;;;;;6164713;23;20063;-86
2023/11/01 10:38:56;;;;;;;3.47;0.70;;;14.40;99.20;;;;;;6117108;23;20053;-87
2023/11/01 10:41:24;;;;;;;;;;;14.40;99.10;;;;;;6186337;23;20020;-88
2023/11/01 10:43:51;;;;;;;3.00;0.45;;;14.40;99.10;;;;;;6161090;23;19916;-86
2023/11/01 10:46:21;;;;;;;2.38;0.43;;;14.50;99.00;;;;;;6161677;23;20020;-86
2023/11/01 10:48:51;;;;;;;2.53;0.32;;;14.50;99.00;;;;;;6163473;23;20020;-87
2023/11/01 10:51:21;;;;;;;1.75;0.60;;;14.60;98.90;;;;;;6156744;23;20017;-88
2023/11/01 10:53:51;;;;;;;3.53;0.60;;;14.60;98.90;;;;;;6157251;23;20031;-86
2023/11/01 10:56:21;;;;;;;4.72;0.50;;;14.70;98.80;;;;;;6181328;23;20017;-87
2023/11/01 10:58:54;;;;;;;4.53;0.73;;;14.70;98.80;;;;;;6138772;23;20021;-87
2023/11/01 11:01:40;;;;;;;4.57;0.60;;;14.70;98.70;;;;;;6161790;23;20075;-86
2023/11/01 11:04:34;;;;;;;3.67;0.70;;;14.70;98.70;;;;;;6161616;23;20409;-89
2023/11/01 11:07:10;;;;;;;4.45;0.50;;;14.70;98.70;;;;;;6132270;23;20060;-84
2023/11/01 11:09:49;;;;;;;2.60;0.65;;;14.70;98.70;;;;;;6164216;23;20056;-86
2023/11/01 11:12:20;;;;;;;3.40;0.60;;;14.70;98.70;;;;;;6137050;23;20108;-86
2023/11/01 11:14:49;;;;;;;3.03;0.60;;;14.70;98.60;;;;;;6185686;23;20917;-86
2023/11/01 11:17:18;;;;;;;2.33;0.52;;;14.70;98.50;;;;;;6161143;23;20079;-86
2023/11/01 11:20:10;;;;;;;2.10;0.70;;;14.80;98.50;;;;;;6161435;23;20021;-86
2023/11/01 11:23:02;;;;;;;3.90;0.40;;;14.90;98.50;;;;;;6137017;23;20383;-86
2023/11/01 11:25:38;;;;;;;4.93;0.70;;;14.90;98.50;;;;;;6136897;23;20044;-86
2023/11/01 11:28:06;;;;;;;1.58;0.30;;;14.90;98.50;;;;;;6136784;23;20037;-85
2023/11/01 11:30:56;;;;;;;3.40;0.63;;;14.90;98.50;;;;;;6160399;23;20024;-86
2023/11/01 11:33:23;;;;;;;4.20;0.55;;;14.90;98.40;;;;;;6135868;23;20021;-87
2023/11/01 11:36:25;;;;;;;3.38;0.68;;;14.80;98.30;;;;;;6112319;23;20017;-87
2023/11/01 11:39:00;;;;;;;4.47;0.73;;;14.80;98.30;;;;;;6135971;23;20025;-87
2023/11/01 11:41:46;;;;;;;0.93;0.50;;;14.80;98.30;;;;;;6161674;23;20047;-86
2023/11/01 11:44:15;;;;;;;3.47;0.65;;;14.90;98.40;;;;;;6160691;23;20017;-87
2023/11/01 11:46:54;;;;;;;3.15;0.47;;;14.90;98.20;;;;;;6136316;23;20051;-88
2023/11/01 11:49:28;;;;;;;2.30;0.50;;;15.00;98.10;;;;;;6160483;23;20092;-86
2023/11/01 11:51:57;;;;;;;4.50;0.77;;;15.00;98.00;;;;;;6136661;23;20076;-86
2023/11/01 11:54:35;;;;;;;4.60;0.75;;;15.10;98.00;;;;;;6112412;23;20414;-85
2023/11/01 11:57:08;;;;;;;;;;;15.20;97.90;;;;;;6134429;23;20061;-87
2023/11/01 11:59:36;;;;;;;2.67;0.55;;;15.10;97.80;;;;;;6180202;23;19944;-87
2023/11/01 12:02:16;;;;;;;4.53;0.55;;;15.20;97.80;;;;;;6131673;23;20025;-86
2023/11/01 12:04:44;;;;;;;2.05;0.70;;;15.20;97.80;;;;;;6156066;23;20076;-88
2023/11/01 12:07:21;;;;;;;3.70;0.50;;;15.30;97.70;;;;;;6131171;23;20092;-86
2023/11/01 12:09:52;;;;;;;1.90;0.55;;;15.30;97.60;;;;;;6156030;23;20021;-86
2023/11/01 12:12:20;;;;;;;3.90;0.37;;;15.40;97.60;;;;;;6155942;23;20104;-86
2023/11/01 12:14:59;;;;;;;0.45;0.30;;;15.50;97.60;;;;;;6131353;23;20025;-87
2023/11/01 12:17:28;;;;;;;1.45;0.45;;;15.50;97.50;;;;;;6132696;23;20025;-87
2023/11/01 12:19:59;;;;;;;3.05;0.40;;;15.50;97.40;;;;;;6131579;23;20049;-86
2023/11/01 12:22:26;;;;;;;2.30;0.70;;;15.60;97.40;;;;;;6180544;23;20088;-87
2023/11/01 12:24:55;;;;;;;3.50;0.40;;;15.50;97.40;;;;;;6156301;23;20108;-88
2023/11/01 12:27:30;;;;;;;1.80;0.40;;;15.50;97.40;;;;;;6131664;23;20021;-86
2023/11/01 12:29:57;;;;;;;1.60;0.40;;;15.50;97.40;;;;;;6155736;23;20028;-86
2023/11/01 12:32:24;;;;;;;2.17;0.38;;;15.40;97.30;;;;;;6155415;23;20503;-86
2023/11/01 12:34:51;;;;;;;2.75;0.30;;;15.30;97.50;;;;;;6155337;23;20048;-86
2023/11/01 12:37:28;;;;;;;2.35;0.40;;;15.30;97.40;;;;;;6155632;23;20022;-86
2023/11/01 12:40:10;;;;;;;3.97;0.60;;;15.20;97.50;;;;;;6130978;23;20021;-87
2023/11/01 12:42:40;;;;;;;4.80;0.45;;;15.20;97.50;;;;;;6130884;23;20033;-85
2023/11/01 12:45:08;;;;;;;3.55;0.57;;;15.20;97.30;;;;;;6155420;23;20037;-87
2023/11/01 12:47:56;;;;;;;1.83;0.32;;;15.20;97.30;;;;;;6130512;23;20017;-86
2023/11/01 12:50:29;;;;;;;1.90;0.30;;;15.20;97.20;;;;;;6130963;23;20091;-86
2023/11/01 12:52:56;;;;;;;2.40;0.50;;;15.30;97.30;;;;;;6130992;23;20029;-85
2023/11/01 12:55:23;;;;;;;3.38;0.95;;;15.40;97.20;;;;;;6159311;23;20023;-85
2023/11/01 12:57:58;;;;;;;2.17;0.30;;;15.40;96.90;;;;;;6135832;23;20099;-85
2023/11/01 13:00:25;;;;;;;0.60;0.28;;;15.40;96.90;;;;;;6136875;23;20048;-85
2023/11/01 13:02:52;;;;;;;0.85;0.20;;;15.30;97.00;;;;;;6111634;23;20017;-86